Sheridan, WY

10:04 AM MDT on October 22, 2014 (GMT -0600)
North Airport Area | Change Station
CLOSE
Current Station
Personal Weather Station
Location: Sheridan, WY
Elevation: 3917 ft
Nearby Weather Stations

Elev 3917 ft 44.78 °N, 106.97 °W | Updated 22 minutes ago

Clear
Clear
47.3 °F
Feels Like 46 °F
N
4.2
Wind Variable Wind from South

Today
High -- | Low -- °F
--% Chance of Precip.
Yesterday
High -- | Low -- °F
Precip. -- in
7:32 AM 6:11 PM
Waning Crescent, 2% visible
Pressure 30.02 in
Visibility 10.0 miles
Clouds Clear
Windchill 46 °F
Dew Point 32 °F
Humidity 54%
Rainfall 0.00 in
Snow Depth 1 in
UV 2 out of 12
Pollen 2.10 out of 12
Air Quality Not available.
Flu Activity Sporadic
METAR KSHR 221553Z AUTO 15005KT 10SM CLR 11/M02 A3005 RMK AO2 SLP165 T01111017 TSNO

More Conditions Fewer Conditions

Pressure 30.02 in
Visibility 10.0 miles
Clouds Clear
Windchill 46 °F
Dew Point 32 °F
Humidity 54%
Rainfall 0.00 in
Snow Depth 1 in
UV 2 out of 12
Pollen 2.10 out of 12
Air Quality Not available.
Flu Activity Sporadic
METAR KSHR 221553Z AUTO 15005KT 10SM CLR 11/M02 A3005 RMK AO2 SLP165 T01111017 TSNO

More Conditions Fewer Conditions

10-Day Weather Forecast

Almanac

Astronomy

Oct. 22, 2014 Rise Set
Actual Time 7:32 AM MDT 6:11 PM MDT
Civil Twilight 7:02 AM MDT 6:41 PM MDT
Nautical Twilight 6:28 AM MDT 7:15 PM MDT
Astronomical Twilight 5:54 AM MDT 7:49 PM MDT
Moon 6:13 AM MDT 5:41 PM MDT
Length of Visible Light 11h 38m
Length of Day
10h 38m
Tomorrow will be 2m 55s shorter.
Waning Crescent, 2% of the Moon is Illuminated
Today
Waning Crescent
Oct 23
New
Oct 30
First Quarter
Nov 6
Full
Nov 14
Last Quarter

Today's Extremes

State Highs State Lows

Community

WunderPhotos

Upload Photos

1,763,956 photos uploaded!

Nearby

Snow Depth

Station Depth Elevation
Big Goose 1 in 7990 ft
Sucker Creek 0 in 8880 ft
Dome Lake 0 in 8880 ft
Cloud Peak Reservoir 0 in 9860 ft
Burgess Junction 1 in 7880 ft

Earthquake Activity

City Distance Mag. Time & Date
No recent earthquake activity has been reported nearby.
Minimum magnitude displayed is 2.5.

Coastal Water Temperatures

Place Temperature
No Stations Reporting

Nearby Weather Stations